createdAt,value
2016-11-06T00:00:00.682Z,7.8
2016-11-06T00:00:10.677Z,7.8
2016-11-06T00:00:20.671Z,7.8
2016-11-06T00:00:30.665Z,7.7
2016-11-06T00:00:40.658Z,7.8
2016-11-06T00:00:50.653Z,7.8
2016-11-06T00:01:00.646Z,7.8
2016-11-06T00:01:10.641Z,7.7
2016-11-06T00:01:20.635Z,7.7
2016-11-06T00:01:30.628Z,7.7
2016-11-06T00:01:40.623Z,7.7
2016-11-06T00:01:50.616Z,7.7
2016-11-06T00:02:00.610Z,7.8
2016-11-06T00:02:10.604Z,7.8
2016-11-06T00:02:20.598Z,7.7
2016-11-06T00:02:30.593Z,7.8
2016-11-06T00:02:40.586Z,7.8
2016-11-06T00:02:50.580Z,7.9
2016-11-06T00:03:00.573Z,7.8
2016-11-06T00:03:10.566Z,7.8
2016-11-06T00:03:20.562Z,7.8
2016-11-06T00:03:30.556Z,7.8
2016-11-06T00:03:40.548Z,7.8
2016-11-06T00:03:50.546Z,7.8
2016-11-06T00:04:00.538Z,7.9
2016-11-06T00:04:10.531Z,7.9
2016-11-06T00:04:20.525Z,7.9
2016-11-06T00:04:30.519Z,7.8
2016-11-06T00:04:40.513Z,7.9
2016-11-06T00:04:50.508Z,7.8
2016-11-06T00:05:00.501Z,7.9
2016-11-06T00:05:10.495Z,7.9
2016-11-06T00:05:20.490Z,7.8
2016-11-06T00:05:30.483Z,7.9
2016-11-06T00:05:40.477Z,7.8
2016-11-06T00:05:50.470Z,7.8
2016-11-06T00:06:00.465Z,7.8
2016-11-06T00:06:10.458Z,7.9
2016-11-06T00:06:20.453Z,7.9
2016-11-06T00:06:30.447Z,7.9
2016-11-06T00:06:40.442Z,7.9
2016-11-06T00:06:50.434Z,7.8
2016-11-06T00:07:00.429Z,7.8
2016-11-06T00:07:10.423Z,7.8
2016-11-06T00:07:20.417Z,7.8
2016-11-06T00:07:30.411Z,7.9
2016-11-06T00:07:40.403Z,7.8
2016-11-06T00:07:50.398Z,7.9
2016-11-06T00:08:00.393Z,7.9
2016-11-06T00:08:10.386Z,7.8
2016-11-06T00:08:20.380Z,7.9
2016-11-06T00:08:30.374Z,7.9
2016-11-06T00:08:40.368Z,7.9
2016-11-06T00:08:50.363Z,7.8
2016-11-06T00:09:00.356Z,7.8
2016-11-06T00:09:10.350Z,7.8
2016-11-06T00:09:20.344Z,7.9
2016-11-06T00:09:30.338Z,7.9
2016-11-06T00:09:40.332Z,7.8
2016-11-06T00:09:50.324Z,7.8
2016-11-06T00:10:00.318Z,7.9
2016-11-06T00:10:10.314Z,7.9
2016-11-06T00:10:20.307Z,7.9
2016-11-06T00:10:30.303Z,7.9
2016-11-06T00:10:40.296Z,7.9
2016-11-06T00:10:50.289Z,7.9
2016-11-06T00:11:00.283Z,7.9
2016-11-06T00:11:10.277Z,8
2016-11-06T00:11:20.271Z,7.9
2016-11-06T00:11:30.265Z,7.9
2016-11-06T00:11:40.260Z,7.9
2016-11-06T00:11:50.254Z,8
2016-11-06T00:12:00.248Z,7.9
2016-11-06T00:12:10.241Z,7.9
2016-11-06T00:12:20.235Z,7.9
2016-11-06T00:12:30.227Z,7.9
2016-11-06T00:12:40.223Z,7.8
2016-11-06T00:12:50.216Z,7.9
2016-11-06T00:13:00.209Z,7.9
2016-11-06T00:13:10.206Z,7.9
2016-11-06T00:13:20.199Z,7.9
2016-11-06T00:13:30.192Z,7.9
2016-11-06T00:13:40.187Z,7.9
2016-11-06T00:13:50.180Z,7.9
2016-11-06T00:14:00.174Z,7.8
2016-11-06T00:14:10.169Z,7.9
2016-11-06T00:14:20.162Z,7.9
2016-11-06T00:14:30.158Z,7.9
2016-11-06T00:14:40.153Z,7.9
2016-11-06T00:14:50.144Z,8
2016-11-06T00:15:00.139Z,8
2016-11-06T00:15:10.131Z,7.9
2016-11-06T00:15:20.126Z,7.9
2016-11-06T00:15:30.120Z,7.8
2016-11-06T00:15:40.114Z,7.8
2016-11-06T00:15:50.108Z,7.8
2016-11-06T00:16:00.103Z,7.9
2016-11-06T00:16:10.096Z,7.9
2016-11-06T00:16:20.089Z,7.9
2016-11-06T00:16:30.083Z,7.8
2016-11-06T00:16:40.077Z,7.8
2016-11-06T00:16:50.070Z,7.8
2016-11-06T00:17:00.065Z,7.9
2016-11-06T00:17:10.060Z,7.8
2016-11-06T00:17:20.054Z,7.9
2016-11-06T00:17:30.047Z,7.9
2016-11-06T00:17:40.041Z,7.8
2016-11-06T00:17:50.034Z,7.9
2016-11-06T00:18:00.028Z,7.8
2016-11-06T00:18:10.023Z,7.8
2016-11-06T00:18:20.017Z,7.9
2016-11-06T00:18:30.011Z,7.8
2016-11-06T00:18:40.005Z,7.8
2016-11-06T00:18:49.999Z,7.9
2016-11-06T00:18:59.993Z,7.8
2016-11-06T00:19:09.986Z,7.9
2016-11-06T00:19:19.981Z,7.8
2016-11-06T00:19:29.975Z,7.8
2016-11-06T00:19:39.968Z,7.9
2016-11-06T00:19:49.963Z,7.8
2016-11-06T00:19:59.956Z,7.8
2016-11-06T00:20:09.950Z,7.9
2016-11-06T00:20:19.945Z,7.9
2016-11-06T00:20:29.938Z,7.9
2016-11-06T00:20:39.932Z,7.9
2016-11-06T00:20:49.925Z,7.9
2016-11-06T00:20:59.919Z,7.9
2016-11-06T00:21:09.915Z,7.9
2016-11-06T00:21:19.909Z,7.9
2016-11-06T00:21:29.902Z,7.9
2016-11-06T00:21:39.897Z,7.9
2016-11-06T00:21:49.888Z,7.8
2016-11-06T00:21:59.883Z,7.9
2016-11-06T00:22:09.878Z,7.8
2016-11-06T00:22:19.871Z,7.9
2016-11-06T00:22:29.868Z,7.8
2016-11-06T00:22:39.861Z,7.8
2016-11-06T00:22:49.853Z,7.9
2016-11-06T00:22:59.937Z,7.9
2016-11-06T00:23:09.841Z,7.8
2016-11-06T00:23:19.835Z,7.9
2016-11-06T00:23:29.829Z,7.8
2016-11-06T00:23:39.822Z,7.9
2016-11-06T00:23:49.817Z,7.9
2016-11-06T00:23:59.812Z,7.8
2016-11-06T00:24:09.806Z,7.8
2016-11-06T00:24:19.799Z,7.9
2016-11-06T00:24:29.793Z,7.9
2016-11-06T00:24:39.787Z,7.8
2016-11-06T00:24:49.781Z,7.9
2016-11-06T00:24:59.774Z,7.8
2016-11-06T00:25:09.769Z,7.8
2016-11-06T00:25:19.762Z,7.8
2016-11-06T00:25:29.757Z,7.8
2016-11-06T00:25:39.751Z,7.8
2016-11-06T00:25:49.744Z,7.9
2016-11-06T00:25:59.737Z,7.8
2016-11-06T00:26:09.732Z,7.8
2016-11-06T00:26:19.726Z,7.9
2016-11-06T00:26:29.721Z,7.9
2016-11-06T00:26:39.715Z,7.9
2016-11-06T00:26:49.708Z,7.9
2016-11-06T00:26:59.702Z,7.9
2016-11-06T00:27:09.696Z,7.8
2016-11-06T00:27:19.689Z,7.8
2016-11-06T00:27:29.684Z,7.9
2016-11-06T00:27:39.676Z,7.8
2016-11-06T00:27:49.672Z,7.9
2016-11-06T00:27:59.666Z,7.9
2016-11-06T00:28:09.659Z,7.8
2016-11-06T00:28:19.655Z,7.9
2016-11-06T00:28:29.649Z,7.8
2016-11-06T00:28:39.642Z,7.8
2016-11-06T00:28:49.636Z,7.8
2016-11-06T00:28:59.630Z,7.9
2016-11-06T00:29:09.622Z,7.9
2016-11-06T00:29:19.618Z,7.8
2016-11-06T00:29:29.611Z,7.8
2016-11-06T00:29:39.606Z,8
2016-11-06T00:29:49.599Z,7.9
2016-11-06T00:29:59.592Z,7.8
2016-11-06T00:30:09.588Z,7.9
2016-11-06T00:30:19.580Z,7.8
2016-11-06T00:30:29.575Z,7.8
2016-11-06T00:30:39.569Z,7.8
2016-11-06T00:30:49.563Z,7.8
2016-11-06T00:30:59.557Z,7.8
2016-11-06T00:31:09.550Z,7.8
2016-11-06T00:31:19.544Z,7.8
2016-11-06T00:31:29.540Z,7.8
2016-11-06T00:31:39.533Z,7.9
2016-11-06T00:31:49.525Z,7.9
2016-11-06T00:31:59.520Z,7.8
2016-11-06T00:32:09.515Z,7.9
2016-11-06T00:32:19.509Z,7.9
2016-11-06T00:32:29.504Z,7.8
2016-11-06T00:32:39.495Z,7.8
2016-11-06T00:32:49.490Z,7.8
2016-11-06T00:32:59.500Z,7.9
2016-11-06T00:33:09.478Z,7.8
2016-11-06T00:33:19.471Z,8
2016-11-06T00:33:29.466Z,7.8
2016-11-06T00:33:39.461Z,7.9
2016-11-06T00:33:49.454Z,7.8
2016-11-06T00:33:59.448Z,7.8
2016-11-06T00:34:09.441Z,7.8
2016-11-06T00:34:19.436Z,7.9
2016-11-06T00:34:29.429Z,7.8
2016-11-06T00:34:39.424Z,7.8
2016-11-06T00:34:49.417Z,7.9
2016-11-06T00:34:59.411Z,7.9
2016-11-06T00:35:09.405Z,7.9
2016-11-06T00:35:19.399Z,7.9
2016-11-06T00:35:29.394Z,7.9
2016-11-06T00:35:39.387Z,7.9
2016-11-06T00:35:49.380Z,7.8
2016-11-06T00:35:59.376Z,7.8
2016-11-06T00:36:09.368Z,7.9
2016-11-06T00:36:19.363Z,7.8
2016-11-06T00:36:29.356Z,7.8
2016-11-06T00:36:39.353Z,7.8
2016-11-06T00:36:49.347Z,7.8
2016-11-06T00:36:59.338Z,7.8
2016-11-06T00:37:09.333Z,7.9
2016-11-06T00:37:19.327Z,7.8
2016-11-06T00:37:29.320Z,7.8
2016-11-06T00:37:39.315Z,7.8
2016-11-06T00:37:49.308Z,7.8
2016-11-06T00:37:59.303Z,7.8
2016-11-06T00:38:09.297Z,7.9
2016-11-06T00:38:19.289Z,7.8
2016-11-06T00:38:29.283Z,7.8
2016-11-06T00:38:39.278Z,7.9
2016-11-06T00:38:49.272Z,7.9
2016-11-06T00:38:59.267Z,8
2016-11-06T00:39:09.260Z,7.9
2016-11-06T00:39:19.253Z,7.8
2016-11-06T00:39:29.249Z,7.9
2016-11-06T00:39:39.249Z,7.9
2016-11-06T00:39:49.236Z,7.8
2016-11-06T00:39:59.230Z,7.8
2016-11-06T00:40:09.222Z,7.8
2016-11-06T00:40:19.219Z,7.8
2016-11-06T00:40:29.211Z,7.8
2016-11-06T00:40:39.206Z,7.8
2016-11-06T00:40:49.200Z,7.9
2016-11-06T00:40:59.193Z,7.8
2016-11-06T00:41:09.186Z,7.8
2016-11-06T00:41:19.180Z,7.9
2016-11-06T00:41:29.175Z,7.9
2016-11-06T00:41:39.168Z,7.8
2016-11-06T00:41:49.162Z,7.9
2016-11-06T00:41:59.157Z,7.9
2016-11-06T00:42:09.151Z,7.9
2016-11-06T00:42:19.145Z,7.9
2016-11-06T00:42:29.139Z,7.8
2016-11-06T00:42:39.133Z,7.8
2016-11-06T00:42:49.126Z,7.8
2016-11-06T00:42:59.120Z,7.8
2016-11-06T00:43:09.113Z,8
2016-11-06T00:43:19.110Z,7.9
2016-11-06T00:43:29.102Z,7.9
2016-11-06T00:43:39.096Z,7.8
2016-11-06T00:43:49.092Z,7.9
2016-11-06T00:43:59.083Z,7.9
2016-11-06T00:44:09.076Z,7.9
2016-11-06T00:44:19.071Z,7.8
2016-11-06T00:44:29.065Z,7.9
2016-11-06T00:44:39.059Z,7.8
2016-11-06T00:44:49.054Z,7.9
2016-11-06T00:44:59.047Z,7.9
2016-11-06T00:45:09.043Z,7.9
2016-11-06T00:45:19.036Z,7.8
2016-11-06T00:45:29.029Z,7.8
2016-11-06T00:45:39.024Z,7.9
2016-11-06T00:45:49.017Z,7.9
2016-11-06T00:45:59.011Z,7.8
2016-11-06T00:46:09.005Z,7.8
2016-11-06T00:46:18.999Z,7.9
2016-11-06T00:46:28.993Z,8
2016-11-06T00:46:38.987Z,7.8
2016-11-06T00:46:48.981Z,8
2016-11-06T00:46:58.974Z,7.9
2016-11-06T00:47:08.970Z,7.8
2016-11-06T00:47:18.963Z,7.8
2016-11-06T00:47:28.956Z,7.8
2016-11-06T00:47:38.950Z,7.8
2016-11-06T00:47:48.945Z,7.8
2016-11-06T00:47:58.940Z,7.8
2016-11-06T00:48:08.932Z,7.9
2016-11-06T00:48:18.925Z,7.8
2016-11-06T00:48:28.920Z,8
2016-11-06T00:48:38.914Z,7.8
2016-11-06T00:48:48.909Z,7.8
2016-11-06T00:48:58.902Z,7.8
2016-11-06T00:49:08.896Z,7.8
2016-11-06T00:49:18.889Z,7.8
2016-11-06T00:49:28.883Z,7.8
2016-11-06T00:49:38.877Z,7.9
2016-11-06T00:49:48.871Z,7.8
2016-11-06T00:49:58.866Z,7.8
2016-11-06T00:50:08.860Z,7.8
2016-11-06T00:50:18.853Z,7.8
2016-11-06T00:50:28.848Z,7.8
2016-11-06T00:50:38.842Z,7.9
2016-11-06T00:50:48.835Z,7.8
2016-11-06T00:50:58.829Z,7.8
2016-11-06T00:51:08.823Z,7.8
2016-11-06T00:51:18.819Z,7.8
2016-11-06T00:51:28.811Z,7.8
2016-11-06T00:51:38.805Z,7.9
2016-11-06T00:51:48.798Z,7.8
2016-11-06T00:51:58.792Z,7.9
2016-11-06T00:52:08.786Z,7.8
2016-11-06T00:52:18.780Z,7.8
2016-11-06T00:52:28.774Z,7.9
2016-11-06T00:52:38.767Z,7.8
2016-11-06T00:52:48.763Z,7.8
2016-11-06T00:52:58.756Z,7.8
2016-11-06T00:53:08.751Z,7.8
2016-11-06T00:53:18.743Z,7.8
2016-11-06T00:53:28.737Z,7.9
2016-11-06T00:53:38.732Z,7.9
2016-11-06T00:53:48.726Z,7.8
2016-11-06T00:53:58.723Z,7.8
2016-11-06T00:54:08.714Z,7.8
2016-11-06T00:54:18.706Z,7.8
2016-11-06T00:54:28.702Z,7.9
2016-11-06T00:54:38.697Z,7.8
2016-11-06T00:54:48.689Z,7.7
2016-11-06T00:54:58.683Z,7.8
2016-11-06T00:55:08.677Z,7.8
2016-11-06T00:55:18.672Z,7.7
2016-11-06T00:55:28.666Z,7.7
2016-11-06T00:55:38.659Z,7.8
2016-11-06T00:55:48.653Z,7.7
2016-11-06T00:55:58.648Z,7.8
2016-11-06T00:56:08.641Z,7.8
2016-11-06T00:56:18.635Z,7.8
2016-11-06T00:56:28.629Z,7.8
2016-11-06T00:56:38.624Z,7.8
2016-11-06T00:56:48.617Z,7.8
2016-11-06T00:56:58.611Z,7.8
2016-11-06T00:57:08.605Z,7.7
2016-11-06T00:57:18.600Z,7.8
2016-11-06T00:57:28.592Z,7.7
2016-11-06T00:57:38.587Z,7.7
2016-11-06T00:57:48.580Z,7.8
2016-11-06T00:57:58.575Z,7.8
2016-11-06T00:58:08.569Z,7.7
2016-11-06T00:58:18.563Z,7.8
2016-11-06T00:58:28.556Z,7.7
2016-11-06T00:58:38.551Z,7.7
2016-11-06T00:58:48.544Z,7.8
2016-11-06T00:58:58.538Z,7.8
2016-11-06T00:59:08.531Z,7.8
2016-11-06T00:59:18.526Z,7.7
2016-11-06T00:59:28.520Z,7.8
2016-11-06T00:59:38.514Z,7.8
2016-11-06T00:59:48.508Z,7.7
2016-11-06T00:59:58.503Z,7.7
2016-11-06T01:00:08.497Z,7.7
2016-11-06T01:00:18.488Z,7.8
2016-11-06T01:00:28.482Z,7.8
2016-11-06T01:00:38.477Z,7.7
2016-11-06T01:00:48.472Z,7.7
2016-11-06T01:00:58.465Z,7.7
2016-11-06T01:01:08.459Z,7.7
2016-11-06T01:01:18.453Z,7.7
2016-11-06T01:01:28.447Z,7.6
2016-11-06T01:01:38.441Z,7.7
2016-11-06T01:01:48.435Z,7.8
2016-11-06T01:01:58.428Z,7.8
2016-11-06T01:02:08.423Z,7.8
2016-11-06T01:02:18.416Z,7.7
2016-11-06T01:02:28.409Z,7.8
2016-11-06T01:02:38.405Z,7.8
2016-11-06T01:02:48.398Z,7.8
2016-11-06T01:02:58.393Z,7.7
2016-11-06T01:03:08.386Z,7.7
2016-11-06T01:03:18.380Z,7.8
2016-11-06T01:03:28.375Z,7.7
2016-11-06T01:03:38.368Z,7.7
2016-11-06T01:03:48.362Z,7.7
2016-11-06T01:03:58.357Z,7.7
2016-11-06T01:04:08.350Z,7.7
2016-11-06T01:04:18.344Z,7.7
2016-11-06T01:04:28.338Z,7.7
2016-11-06T01:04:38.332Z,7.7
2016-11-06T01:04:48.326Z,7.7
2016-11-06T01:04:58.319Z,7.6
2016-11-06T01:05:08.314Z,7.7
2016-11-06T01:05:18.307Z,7.6
2016-11-06T01:05:28.301Z,7.7
2016-11-06T01:05:38.296Z,7.7
2016-11-06T01:05:48.289Z,7.7
2016-11-06T01:05:58.284Z,7.6
2016-11-06T01:06:08.277Z,7.7
2016-11-06T01:06:18.271Z,7.7
2016-11-06T01:06:28.266Z,7.7
2016-11-06T01:06:38.260Z,7.6
2016-11-06T01:06:48.253Z,7.7
2016-11-06T01:06:58.247Z,7.6
2016-11-06T01:07:08.239Z,7.6
2016-11-06T01:07:18.235Z,7.7
2016-11-06T01:07:28.229Z,7.6
2016-11-06T01:07:38.222Z,7.7
2016-11-06T01:07:48.217Z,7.7
2016-11-06T01:07:58.211Z,7.7
2016-11-06T01:08:08.205Z,7.7
2016-11-06T01:08:18.200Z,7.6
2016-11-06T01:08:28.193Z,7.6
2016-11-06T01:08:38.186Z,7.7
2016-11-06T01:08:48.181Z,7.7
2016-11-06T01:08:58.174Z,7.6
2016-11-06T01:09:08.169Z,7.7
2016-11-06T01:09:18.163Z,7.6
2016-11-06T01:09:28.156Z,7.6
2016-11-06T01:09:38.151Z,7.6
2016-11-06T01:09:48.144Z,7.7
2016-11-06T01:09:58.137Z,7.6
2016-11-06T01:10:08.132Z,7.6
2016-11-06T01:10:18.126Z,7.7
2016-11-06T01:10:28.120Z,7.6
2016-11-06T01:10:38.117Z,7.6
2016-11-06T01:10:48.108Z,7.6
2016-11-06T01:10:58.102Z,7.6
2016-11-06T01:11:08.095Z,7.5
2016-11-06T01:11:18.097Z,7.5
2016-11-06T01:11:28.084Z,7.6
2016-11-06T01:11:38.077Z,7.6
2016-11-06T01:11:48.072Z,7.6
2016-11-06T01:11:58.066Z,7.6
2016-11-06T01:12:08.058Z,7.6
2016-11-06T01:12:18.054Z,7.6
2016-11-06T01:12:28.046Z,7.6
2016-11-06T01:12:38.040Z,7.6
2016-11-06T01:12:48.035Z,7.6
2016-11-06T01:12:58.027Z,7.6
2016-11-06T01:13:08.023Z,7.6
2016-11-06T01:13:18.018Z,7.6
2016-11-06T01:13:28.010Z,7.6
2016-11-06T01:13:38.005Z,7.6
2016-11-06T01:13:47.999Z,7.6
2016-11-06T01:13:57.992Z,7.5
2016-11-06T01:14:07.987Z,7.6
2016-11-06T01:14:17.980Z,7.6
2016-11-06T01:14:27.975Z,7.6
2016-11-06T01:14:37.969Z,7.5
2016-11-06T01:14:47.962Z,7.6
2016-11-06T01:14:57.957Z,7.5
2016-11-06T01:15:07.949Z,7.5
2016-11-06T01:15:17.944Z,7.5
2016-11-06T01:15:27.939Z,7.6
2016-11-06T01:15:37.933Z,7.5
2016-11-06T01:15:47.925Z,7.6
2016-11-06T01:15:57.920Z,7.5
2016-11-06T01:16:07.914Z,7.6
2016-11-06T01:16:17.908Z,7.6
2016-11-06T01:16:27.901Z,7.6
2016-11-06T01:16:37.896Z,7.6
2016-11-06T01:16:47.890Z,7.4
2016-11-06T01:16:57.887Z,7.5
2016-11-06T01:17:07.878Z,7.5
2016-11-06T01:17:17.871Z,7.5
2016-11-06T01:17:27.865Z,7.5
2016-11-06T01:17:37.860Z,7.5
2016-11-06T01:17:47.854Z,7.4
2016-11-06T01:17:57.847Z,7.5
2016-11-06T01:18:07.841Z,7.4
2016-11-06T01:18:17.835Z,7.4
2016-11-06T01:18:27.828Z,7.5
2016-11-06T01:18:37.824Z,7.5
2016-11-06T01:18:47.817Z,7.5
2016-11-06T01:18:57.811Z,7.5
2016-11-06T01:19:07.805Z,7.5
2016-11-06T01:19:17.799Z,7.5
2016-11-06T01:19:27.793Z,7.5
2016-11-06T01:19:37.785Z,7.5
2016-11-06T01:19:47.781Z,7.5
2016-11-06T01:19:57.775Z,7.4
2016-11-06T01:20:07.768Z,7.4
2016-11-06T01:20:17.763Z,7.5
2016-11-06T01:20:27.756Z,7.4
2016-11-06T01:20:37.750Z,7.5
2016-11-06T01:20:47.744Z,7.5
2016-11-06T01:20:57.737Z,7.5
2016-11-06T01:21:07.732Z,7.5
2016-11-06T01:21:17.727Z,7.5
2016-11-06T01:21:27.720Z,7.5
2016-11-06T01:21:37.715Z,7.5
2016-11-06T01:21:47.708Z,7.4
2016-11-06T01:21:57.702Z,7.4
2016-11-06T01:22:07.696Z,7.5
2016-11-06T01:22:17.690Z,7.4
2016-11-06T01:22:27.683Z,7.5
2016-11-06T01:22:37.678Z,7.5
2016-11-06T01:22:47.671Z,7.5
2016-11-06T01:22:57.666Z,7.5
2016-11-06T01:23:07.659Z,7.5
2016-11-06T01:23:17.653Z,7.5
2016-11-06T01:23:27.648Z,7.5
2016-11-06T01:23:37.641Z,7.5
2016-11-06T01:23:47.636Z,7.5
2016-11-06T01:23:57.629Z,7.4
2016-11-06T01:24:07.623Z,7.4
2016-11-06T01:24:17.617Z,7.5
2016-11-06T01:24:27.611Z,7.3
2016-11-06T01:24:37.606Z,7.4
2016-11-06T01:24:47.598Z,7.5
2016-11-06T01:24:57.593Z,7.5
2016-11-06T01:25:07.587Z,7.5
2016-11-06T01:25:17.581Z,7.5
2016-11-06T01:25:27.574Z,7.4
2016-11-06T01:25:37.570Z,7.5
2016-11-06T01:25:47.562Z,7.4
2016-11-06T01:25:57.557Z,7.5
2016-11-06T01:26:07.551Z,7.5
2016-11-06T01:26:17.543Z,7.4
2016-11-06T01:26:27.538Z,7.4
2016-11-06T01:26:37.533Z,7.5
2016-11-06T01:26:47.526Z,7.5
2016-11-06T01:26:57.520Z,7.5
2016-11-06T01:27:07.515Z,7.5
2016-11-06T01:27:17.508Z,7.5
2016-11-06T01:27:27.502Z,7.5
2016-11-06T01:27:37.495Z,7.5
2016-11-06T01:27:47.490Z,7.4
2016-11-06T01:27:57.484Z,7.5
2016-11-06T01:28:07.477Z,7.4
2016-11-06T01:28:17.473Z,7.4
2016-11-06T01:28:27.466Z,7.4
2016-11-06T01:28:37.460Z,7.4
2016-11-06T01:28:47.454Z,7.5
2016-11-06T01:28:57.446Z,7.5
2016-11-06T01:29:07.440Z,7.4
2016-11-06T01:29:17.437Z,7.4
2016-11-06T01:29:27.429Z,7.4
2016-11-06T01:29:37.424Z,7.3
2016-11-06T01:29:47.417Z,7.5
2016-11-06T01:29:57.411Z,7.3
2016-11-06T01:30:07.407Z,7.5
2016-11-06T01:30:17.399Z,7.4
2016-11-06T01:30:27.393Z,7.5
2016-11-06T01:30:37.387Z,7.5
2016-11-06T01:30:47.381Z,7.5
2016-11-06T01:30:57.375Z,7.3
2016-11-06T01:31:07.368Z,7.3
2016-11-06T01:31:17.363Z,7.5
2016-11-06T01:31:27.357Z,7.5
2016-11-06T01:31:37.350Z,7.3
2016-11-06T01:31:47.344Z,7.5
2016-11-06T01:31:57.339Z,7.5
2016-11-06T01:32:07.331Z,7.5
2016-11-06T01:32:17.326Z,7.4
2016-11-06T01:32:27.320Z,7.5
2016-11-06T01:32:37.314Z,7.4
2016-11-06T01:32:47.309Z,7.4
2016-11-06T01:32:57.300Z,7.5
2016-11-06T01:33:07.296Z,7.5
2016-11-06T01:33:17.289Z,7.5
2016-11-06T01:33:27.284Z,7.3
2016-11-06T01:33:37.277Z,7.4
2016-11-06T01:33:47.271Z,7.5
2016-11-06T01:33:57.266Z,7.5
2016-11-06T01:34:07.261Z,7.5
2016-11-06T01:34:17.253Z,7.4
2016-11-06T01:34:27.247Z,7.5
2016-11-06T01:34:37.242Z,7.4
2016-11-06T01:34:47.235Z,7.5
2016-11-06T01:34:57.229Z,7.5
2016-11-06T01:35:07.222Z,7.5
2016-11-06T01:35:17.218Z,7.5
2016-11-06T01:35:27.213Z,7.4
2016-11-06T01:35:37.205Z,7.5
2016-11-06T01:35:47.199Z,7.5
2016-11-06T01:35:57.193Z,7.5
2016-11-06T01:36:07.187Z,7.5
2016-11-06T01:36:17.181Z,7.5
2016-11-06T01:36:27.174Z,7.5
2016-11-06T01:36:37.169Z,7.4
2016-11-06T01:36:47.163Z,7.4
2016-11-06T01:36:57.156Z,7.5
2016-11-06T01:37:07.151Z,7.5
2016-11-06T01:37:17.145Z,7.4
2016-11-06T01:37:27.137Z,7.5
2016-11-06T01:37:37.133Z,7.4
2016-11-06T01:37:47.126Z,7.5
2016-11-06T01:37:57.120Z,7.4
2016-11-06T01:38:07.114Z,7.5
2016-11-06T01:38:17.106Z,7.5
2016-11-06T01:38:27.102Z,7.5
2016-11-06T01:38:37.096Z,7.4
2016-11-06T01:38:47.090Z,7.4
2016-11-06T01:38:57.084Z,7.5
2016-11-06T01:39:07.078Z,7.5
2016-11-06T01:39:17.071Z,7.6
2016-11-06T01:39:27.064Z,7.5
2016-11-06T01:39:37.059Z,7.5
2016-11-06T01:39:47.053Z,7.4
2016-11-06T01:39:57.048Z,7.5
2016-11-06T01:40:07.041Z,7.5
2016-11-06T01:40:17.034Z,7.4
2016-11-06T01:40:27.029Z,7.5
2016-11-06T01:40:37.024Z,7.5
2016-11-06T01:40:47.017Z,7.5
2016-11-06T01:40:57.010Z,7.5
2016-11-06T01:41:07.003Z,7.4
2016-11-06T01:41:16.998Z,7.5
2016-11-06T01:41:26.992Z,7.5
2016-11-06T01:41:36.987Z,7.5
2016-11-06T01:41:46.980Z,7.5
2016-11-06T01:41:56.974Z,7.4
2016-11-06T01:42:06.969Z,7.5
2016-11-06T01:42:16.961Z,7.5
2016-11-06T01:42:26.957Z,7.4
2016-11-06T01:42:36.951Z,7.4
2016-11-06T01:42:46.943Z,7.5
2016-11-06T01:42:56.938Z,7.5
2016-11-06T01:43:06.931Z,7.5
2016-11-06T01:43:16.926Z,7.5
2016-11-06T01:43:26.919Z,7.4
2016-11-06T01:43:36.914Z,7.5
2016-11-06T01:43:46.906Z,7.5
2016-11-06T01:43:56.902Z,7.5
2016-11-06T01:44:06.895Z,7.5
2016-11-06T01:44:16.890Z,7.5
2016-11-06T01:44:26.884Z,7.5
2016-11-06T01:44:36.877Z,7.5
2016-11-06T01:44:46.871Z,7.5
2016-11-06T01:44:56.865Z,7.5
2016-11-06T01:45:06.859Z,7.5
2016-11-06T01:45:16.853Z,7.5
2016-11-06T01:45:26.846Z,7.5
2016-11-06T01:45:36.841Z,7.4
2016-11-06T01:45:46.834Z,7.5
2016-11-06T01:45:56.829Z,7.5
2016-11-06T01:46:06.823Z,7.5
2016-11-06T01:46:16.817Z,7.4
2016-11-06T01:46:26.811Z,7.4
2016-11-06T01:46:36.805Z,7.5
2016-11-06T01:46:46.798Z,7.5
2016-11-06T01:46:56.791Z,7.5
2016-11-06T01:47:06.786Z,7.4
2016-11-06T01:47:16.781Z,7.5
2016-11-06T01:47:26.775Z,7.4
2016-11-06T01:47:36.768Z,7.5
2016-11-06T01:47:46.763Z,7.6
2016-11-06T01:47:56.757Z,7.5
2016-11-06T01:48:06.749Z,7.5
2016-11-06T01:48:16.744Z,7.5
2016-11-06T01:48:26.738Z,7.5
2016-11-06T01:48:36.732Z,7.5
2016-11-06T01:48:46.727Z,7.4
2016-11-06T01:48:56.720Z,7.5
2016-11-06T01:49:06.714Z,7.6
2016-11-06T01:49:16.709Z,7.6
2016-11-06T01:49:26.700Z,7.6
2016-11-06T01:49:36.696Z,7.6
2016-11-06T01:49:46.690Z,7.5
2016-11-06T01:49:56.683Z,7.6
2016-11-06T01:50:06.678Z,7.5
2016-11-06T01:50:16.671Z,7.5
2016-11-06T01:50:26.666Z,7.5
2016-11-06T01:50:36.660Z,7.6
2016-11-06T01:50:46.653Z,7.5
2016-11-06T01:50:56.647Z,7.6
2016-11-06T01:51:06.641Z,7.5
2016-11-06T01:51:16.635Z,7.5
2016-11-06T01:51:26.629Z,7.6
2016-11-06T01:51:36.622Z,7.6
2016-11-06T01:51:46.617Z,7.5
2016-11-06T01:51:56.611Z,7.6
2016-11-06T01:52:06.605Z,7.6
2016-11-06T01:52:16.599Z,7.5
2016-11-06T01:52:26.592Z,7.6
2016-11-06T01:52:36.587Z,7.5
2016-11-06T01:52:46.582Z,7.6
2016-11-06T01:52:56.575Z,7.6
2016-11-06T01:53:06.569Z,7.6
2016-11-06T01:53:16.561Z,7.5
2016-11-06T01:53:26.556Z,7.5
2016-11-06T01:53:36.550Z,7.6
2016-11-06T01:53:46.544Z,7.5
2016-11-06T01:53:56.538Z,7.5
2016-11-06T01:54:06.531Z,7.6
2016-11-06T01:54:16.526Z,7.5
2016-11-06T01:54:26.521Z,7.5
2016-11-06T01:54:36.515Z,7.5
2016-11-06T01:54:46.509Z,7.6
2016-11-06T01:54:56.501Z,7.5
2016-11-06T01:55:06.495Z,7.6
2016-11-06T01:55:16.498Z,7.5
2016-11-06T01:55:26.484Z,7.5
2016-11-06T01:55:36.476Z,7.6
2016-11-06T01:55:46.472Z,7.5
2016-11-06T01:55:56.466Z,7.5
2016-11-06T01:56:06.459Z,7.5
2016-11-06T01:56:16.453Z,7.5
2016-11-06T01:56:26.446Z,7.6
2016-11-06T01:56:36.442Z,7.4
2016-11-06T01:56:46.435Z,7.5
2016-11-06T01:56:56.429Z,7.6
2016-11-06T01:57:06.423Z,7.5
2016-11-06T01:57:16.418Z,7.5
2016-11-06T01:57:26.409Z,7.6
2016-11-06T01:57:36.405Z,7.5
2016-11-06T01:57:46.398Z,7.4
2016-11-06T01:57:56.392Z,7.5
2016-11-06T01:58:06.387Z,7.5
2016-11-06T01:58:16.381Z,7.4
2016-11-06T01:58:26.374Z,7.5
2016-11-06T01:58:36.369Z,7.5
2016-11-06T01:58:46.361Z,7.4
2016-11-06T01:58:56.355Z,7.6
2016-11-06T01:59:06.350Z,7.6
2016-11-06T01:59:16.344Z,7.5
2016-11-06T01:59:26.339Z,7.5
2016-11-06T01:59:36.332Z,7.4
2016-11-06T01:59:46.327Z,7.6
2016-11-06T01:59:56.319Z,7.5
2016-11-06T02:00:06.313Z,7.5
2016-11-06T02:00:16.308Z,7.5
2016-11-06T02:00:26.302Z,7.5
2016-11-06T02:00:36.296Z,7.6
2016-11-06T02:00:46.290Z,7.5
2016-11-06T02:00:56.283Z,7.5
2016-11-06T02:01:06.279Z,7.5
2016-11-06T02:01:16.272Z,7.5
2016-11-06T02:01:26.265Z,7.5
2016-11-06T02:01:36.260Z,7.5
2016-11-06T02:01:46.253Z,7.5
2016-11-06T02:01:56.247Z,7.5
2016-11-06T02:02:06.242Z,7.5
2016-11-06T02:02:16.235Z,7.6
2016-11-06T02:02:26.229Z,7.5
2016-11-06T02:02:36.224Z,7.5
2016-11-06T02:02:46.217Z,7.5
2016-11-06T02:02:56.211Z,7.6
2016-11-06T02:03:06.203Z,7.6
2016-11-06T02:03:16.199Z,7.5
2016-11-06T02:03:26.193Z,7.5
2016-11-06T02:03:36.191Z,7.5
2016-11-06T02:03:46.181Z,7.5
2016-11-06T02:03:56.176Z,7.5
2016-11-06T02:04:06.170Z,7.6
2016-11-06T02:04:16.163Z,7.6
2016-11-06T02:04:26.156Z,7.6
2016-11-06T02:04:36.150Z,7.6
2016-11-06T02:04:46.143Z,7.5
2016-11-06T02:04:56.138Z,7.6
2016-11-06T02:05:06.133Z,7.5
2016-11-06T02:05:16.128Z,7.5
2016-11-06T02:05:26.120Z,7.5
2016-11-06T02:05:36.113Z,7.5
2016-11-06T02:05:46.106Z,7.6
2016-11-06T02:05:56.102Z,7.6
2016-11-06T02:06:06.096Z,7.6
2016-11-06T02:06:16.090Z,7.6
2016-11-06T02:06:26.084Z,7.5
2016-11-06T02:06:36.078Z,7.5
2016-11-06T02:06:46.072Z,7.6
2016-11-06T02:06:56.065Z,7.6
2016-11-06T02:07:06.059Z,7.6
2016-11-06T02:07:16.052Z,7.6
2016-11-06T02:07:26.048Z,7.6
2016-11-06T02:07:36.041Z,7.6
2016-11-06T02:07:46.037Z,7.6
2016-11-06T02:07:56.030Z,7.6
2016-11-06T02:08:06.023Z,7.5
2016-11-06T02:08:16.017Z,7.4
2016-11-06T02:08:26.009Z,7.6
2016-11-06T02:08:36.005Z,7.6
2016-11-06T02:08:45.999Z,7.5
2016-11-06T02:08:55.992Z,7.6
2016-11-06T02:09:05.986Z,7.6
2016-11-06T02:09:15.981Z,7.5
2016-11-06T02:09:25.973Z,7.5
2016-11-06T02:09:35.970Z,7.5
2016-11-06T02:09:45.962Z,7.6
2016-11-06T02:09:55.956Z,7.5
2016-11-06T02:10:05.952Z,7.4
2016-11-06T02:10:15.944Z,7.4
2016-11-06T02:10:25.938Z,7.5
2016-11-06T02:10:35.933Z,7.5
2016-11-06T02:10:45.926Z,7.5
2016-11-06T02:10:55.920Z,7.5
2016-11-06T02:11:05.913Z,7.5
2016-11-06T02:11:15.907Z,7.4
2016-11-06T02:11:25.902Z,7.5
2016-11-06T02:11:35.896Z,7.5
2016-11-06T02:11:45.890Z,7.6
2016-11-06T02:11:55.885Z,7.5
2016-11-06T02:12:05.877Z,7.5
2016-11-06T02:12:15.871Z,7.5
2016-11-06T02:12:25.865Z,7.6
2016-11-06T02:12:35.859Z,7.4
2016-11-06T02:12:45.854Z,7.4
2016-11-06T02:12:55.847Z,7.5
2016-11-06T02:13:05.841Z,7.4
2016-11-06T02:13:15.834Z,7.5
2016-11-06T02:13:25.829Z,7.5
2016-11-06T02:13:35.823Z,7.5
2016-11-06T02:13:45.817Z,7.4
2016-11-06T02:13:55.833Z,7.5
2016-11-06T02:14:05.805Z,7.5
2016-11-06T02:14:15.798Z,7.6
2016-11-06T02:14:25.793Z,7.5
2016-11-06T02:14:35.787Z,7.5
2016-11-06T02:14:45.779Z,7.6
2016-11-06T02:14:55.780Z,7.5
2016-11-06T02:15:05.768Z,7.5
2016-11-06T02:15:15.761Z,7.4
2016-11-06T02:15:25.756Z,7.5
2016-11-06T02:15:35.749Z,7.6
2016-11-06T02:15:45.744Z,7.5
2016-11-06T02:15:55.738Z,7.5
2016-11-06T02:16:05.731Z,7.6
2016-11-06T02:16:15.727Z,7.6
2016-11-06T02:16:25.719Z,7.5
2016-11-06T02:16:35.714Z,7.6
2016-11-06T02:16:45.708Z,7.5
2016-11-06T02:16:55.701Z,7.5
2016-11-06T02:17:05.698Z,7.5
2016-11-06T02:17:15.690Z,7.4
2016-11-06T02:17:25.684Z,7.4
2016-11-06T02:17:35.678Z,7.5